Tiempo atmosférico en la estación meteorológica de Bera, Navarra (78 m.)



Fecha
DESCASC
Temp. máxima en grados centígrados (hora)
DESCASC
Temp. mínima en grados centígrados (hora)
DESCASC
Temp. media en grados centígrados
DESCASC
Racha de viento máxima en m/sg (hora)
DESCASC
Velocidad máxima media en intervalos de 10 minutos(hora)
DESCASC
Precipitaciones diarias en mm
DESCASC
Precipitaciones de 00:00 a 06:00 en mm
DESCASC
Precipitaciones de 06:00 a 12:00 en mm
DESCASC
Precipitaciones de 12:00 a 18:00 en mm
DESCASC
Precipitaciones de 18:00 a 24:00 en mm
DESCASC
18-01-2018 14.5 (15:00) 3.2 (08:00) 8.9 5 (16:20) 2.22 (16:20) 0 0 0 0 0
17-01-2018 13.4 (00:50) 6.6 (23:50) 10 14.72 (03:20) 6.11 (03:20) 10.8 6.6 1.4 2.8 0
16-01-2018 14.3 (14:40) 10.1 (00:50) 12.2 12.22 (23:59) 4.72 (23:59) 6.8 0 1.8 0 5
15-01-2018 11.8 (13:40) 4.5 (01:50) 8.2 6.11 (20:10) 2.78 (20:10) 0.4 0.2 0.2 0 0
14-01-2018 8.6 (14:00) 5.7 (00:00) 7.2 8.89 (15:50) 3.06 (15:50) 25.2 5 3.8 6.4 10
13-01-2018 11.7 (12:50) 2.8 (00:00) 7.2 11.39 (14:20) 4.44 (10:50) 1.6 0 0 0 1.6
12-01-2018 11.3 (16:20) 3 (00:00) 7.2 2.5 (04:10) 1.11 (22:30) 3.2 2.2 1 0 0
11-01-2018 7.9 (00:00) 2.5 (00:00) 5.2 8.89 (15:50) 4.17 (15:50) 15.2 0.4 8.8 4.4 1.6
10-01-2018 13.1 (14:10) 6 (00:00) 9.6 11.94 (23:30) 5 (18:30) 9.8 0 0 0.2 9.6
09-01-2018 9.6 (15:30) -2.1 (-00:0) 3.8 12.5 (13:30) 5 (16:10) 1 0 0 0.2 0.8
08-01-2018 13 (15:10) -0.9 (-00:0) 6.1 4.17 (14:00) 2.22 (14:00) 0.2 0.2 0 0 0
07-01-2018 4.7 (15:00) 0.7 (00:00) 2.7 2.22 (08:00) 1.11 (10:30) 26 12.2 5.2 7.6 1
06-01-2018 8.5 (00:00) 0.2 (00:00) 4.4 2.5 (01:40) 1.11 (08:00) 61 17.2 13.6 13.4 16.8
05-01-2018 -- (--) -- (--) -- -- (--) -- (--) -- 0 -- 1.6 11.2
04-01-2018 21 (14:30) 9.5 (20:50) 15.3 7.5 (15:00) 3.89 (15:00) 0.2 0.2 0 0 0
03-01-2018 17.9 (11:50) 11.4 (00:00) 14.6 8.89 (23:59) 3.33 (12:40) 6.6 0 0 4.2 2.4
02-01-2018 17 (17:10) 8.9 (00:00) 12.9 9.44 (14:50) 3.06 (16:50) 6.2 2.6 2.6 1 0
01-01-2018 14.8 (14:40) 4.1 (00:00) 9.5 15 (15:20) 7.5 (15:20) 15.2 0.2 0 14.4 0.6
31-12-2017 17.7 (15:10) 4.6 (00:00) 11.2 18.89 (15:40) 8.89 (15:40) 13.6 0 0 9 4.6
30-12-2017 17.8 (14:40) 4.8 (00:00) 11.3 3.33 (16:00) 1.67 (16:20) 0 0 0 0 0
29-12-2017 16.5 (14:30) 7.4 (00:00) 12 12.5 (11:20) 6.11 (11:20) 6.2 0.2 6 0 0
28-12-2017 11.3 (20:30) 5.2 (00:00) 8.3 11.67 (20:30) 5 (20:30) 32 13.4 5.6 6 7
27-12-2017 11.1 (00:30) 5.6 (00:00) 8.4 19.72 (10:10) 8.61 (07:40) 51.2 13 24 3.6 10.6
26-12-2017 11.2 (21:50) 4.1 (00:00) 7.6 18.61 (21:50) 7.5 (22:30) 7 5.8 0 0 1.2
25-12-2017 13.7 (13:30) -0.1 (00:00) 6.8 12.5 (18:40) 5.83 (18:40) 0.8 0 0 0 0.8
24-12-2017 14.7 (15:10) 2.2 (00:00) 8.4 1.67 (17:30) 1.11 (15:20) 0 0 0 0 0

Gráficas

Temp. máximas Temp. mínimas Temp. medias Precipitaciones Rachas de viento máximas Velocidades máximas media en intervalos de 10 minutos

Datos horarios

Fecha y hora oficial Temperatura (ºC) Velocidad del viento (km/h) Dirección del viento Racha (km/h) Dirección de racha Precipitación (mm) Presión (hPa) Tendencia (hPa) Humedad (%)
2018-01-22 23:00:00 12.2 0 Calma 2 Nordeste 0 -- -- 98
2018-01-22 22:00:00 12.2 0 Calma 5 Sur 0 -- -- 98
2018-01-22 21:00:00 12.3 3 Sur 5 Sur 0 -- -- 98
2018-01-22 20:00:00 12.2 0 Calma 5 Este 0 -- -- 97
2018-01-22 19:00:00 12.4 3 Sudeste 5 Oeste 0 -- -- 96
2018-01-22 18:00:00 12.7 2 Sudoeste 16 Oeste 0 -- -- 93
2018-01-22 17:00:00 13.5 4 Oeste 15 Sudoeste 0 -- -- 89
2018-01-22 16:00:00 13.6 0 Calma 8 Este 0 -- -- 88
2018-01-22 15:00:00 13.8 2 Oeste 19 Sudoeste 0 -- -- 84
2018-01-22 14:00:00 14.6 6 Oeste 24 Sudoeste 0 -- -- 76
2018-01-22 13:00:00 14.8 7 Oeste 24 Sudoeste 0 -- -- 74
2018-01-22 12:00:00 13.9 4 Oeste 17 Oeste 0 -- -- 85
2018-01-22 11:00:00 12.3 0 Calma 5 Oeste 0 -- -- 100
2018-01-22 10:00:00 11.6 2 Noroeste 4 Sur 0 -- -- 100
2018-01-22 09:00:00 11.1 0 Calma 5 Este 0 -- -- 100
2018-01-22 08:00:00 11.1 0 Calma 5 Sudeste 0 -- -- 100
2018-01-22 07:00:00 11.2 0 Calma 2 Este 0 -- -- 100
2018-01-22 06:00:00 11.5 0 Calma 4 Sudeste 0 -- -- 100
2018-01-22 05:00:00 11.5 0 Calma 0 Calma 0 -- -- 99
2018-01-22 04:00:00 11.8 0 Calma 3 Este 0 -- -- 99
2018-01-22 03:00:00 11.9 0 Calma 3 Este 0 -- -- 99
2018-01-22 02:00:00 12 0 Calma 4 Sudeste 0 -- -- 99
2018-01-22 01:00:00 12.2 0 Calma 4 Este 0 -- -- 98
2018-01-22 00:00:00 12.6 0 Calma 5 Este 0 -- -- 97
2018-01-21 23:00:00 13 0 Calma 10 Sudoeste 0 -- -- 95
2018-01-21 22:00:00 13.3 2 Sudoeste 10 Sudoeste 0 -- -- 94
2018-01-21 21:00:00 13.4 3 Noroeste 12 Sudoeste 0 -- -- 93
2018-01-21 20:00:00 13.6 4 Noroeste 19 Sudoeste 0 -- -- 92
2018-01-21 19:00:00 13.3 4 Sudoeste 18 Oeste 0 -- -- 93
2018-01-21 18:00:00 13.5 8 Oeste 29 Oeste 0 -- -- 93
2018-01-21 17:00:00 13.4 9 Oeste 25 Sudoeste 0 -- -- 93
2018-01-21 16:00:00 13.4 8 Oeste 32 Oeste 0 -- -- 93
2018-01-21 15:00:00 13.2 16 Oeste 41 Oeste 0.2 -- -- 95
2018-01-21 14:00:00 13.3 9 Oeste 25 Oeste 0.4 -- -- 98
2018-01-21 13:00:00 13.1 8 Oeste 24 Sudoeste 1.2 -- -- 98
2018-01-21 12:00:00 12.9 11 Oeste 35 Oeste 1.8 -- -- 98
2018-01-21 11:00:00 12.9 14 Oeste 31 Oeste 2.8 -- -- 98
2018-01-21 10:00:00 12.7 9 Oeste 27 Oeste 2.2 -- -- 98
2018-01-21 09:00:00 12.6 10 Oeste 28 Oeste 1.8 -- -- 98
2018-01-21 08:00:00 12.8 10 Noroeste 40 Oeste 3.2 -- -- 98
2018-01-21 07:00:00 12.8 13 Noroeste 43 Oeste 4.8 -- -- 98
2018-01-21 06:00:00 12.9 14 Noroeste 42 Oeste 2.4 -- -- 98
2018-01-21 05:00:00 12.9 15 Oeste 35 Noroeste 4.6 -- -- 98
2018-01-21 04:00:00 12.8 11 Oeste 35 Noroeste 3.2 -- -- 98
2018-01-21 03:00:00 12.7 13 Oeste 30 Oeste 3.4 -- -- 98
2018-01-21 02:00:00 12.6 9 Oeste 34 Oeste 2.4 -- -- 98
2018-01-21 01:00:00 12.6 11 Oeste 32 Oeste 1.8 -- -- 97
2018-01-21 00:00:00 12.7 14 Oeste 32 Sudoeste 3.2 -- -- 96
2018-01-20 23:00:00 12.6 8 Oeste 33 Oeste 3 -- -- 97
2018-01-20 22:00:00 12.9 16 Oeste 48 Oeste 2.8 -- -- 93
2018-01-20 21:00:00 12.8 11 Oeste 27 Noroeste 2.4 -- -- 93
2018-01-20 20:00:00 12.8 9 Oeste 28 Oeste 1.6 -- -- 92
2018-01-20 19:00:00 13.2 11 Oeste 23 Noroeste 0.6 -- -- 89
2018-01-20 18:00:00 13.2 9 Oeste 35 Oeste 0.8 -- -- 89
2018-01-20 17:00:00 14 10 Oeste 27 Oeste 0.2 -- -- 80
2018-01-20 16:00:00 13 8 Noroeste 27 Sudoeste 1 -- -- 90
2018-01-20 15:00:00 12.4 4 Noroeste 21 Oeste 1.2 -- -- 93
2018-01-20 14:00:00 12.8 8 Sudoeste 31 Oeste 0.2 -- -- 84
2018-01-20 13:00:00 13.7 10 Oeste 38 Noroeste 0 -- -- 71
2018-01-20 12:00:00 13.5 14 Sudoeste 30 Oeste 0 -- -- 63
2018-01-20 11:00:00 11.3 7 Sudoeste 14 Sudoeste 0 -- -- 71
2018-01-20 10:00:00 8.6 0 Calma 6 Sudeste 0 -- -- 97
2018-01-20 09:00:00 7.8 0 Calma 8 Sur 0 -- -- 97
2018-01-20 08:00:00 7.6 0 Calma 5 Norte 0 -- -- 98
2018-01-20 07:00:00 7.4 0 Calma 5 Sur 0 -- -- 98
2018-01-20 06:00:00 7.1 3 Este 6 Sudeste 0 -- -- 98
2018-01-20 05:00:00 7.8 0 Calma 4 Sur 0 -- -- 97
2018-01-20 04:00:00 7.9 0 Calma 5 Sudoeste 0 -- -- 97
2018-01-20 03:00:00 8.2 0 Calma 5 Sudeste 0 -- -- 96
2018-01-20 02:00:00 8.8 2 Sudeste 5 Sudoeste 0 -- -- 96
2018-01-20 01:00:00 9.1 0 Calma 4 Sudeste 0 -- -- 95
2018-01-20 00:00:00 9.8 2 Sudeste 12 Noroeste 0.4 -- -- 91
2018-01-19 23:00:00 10.1 5 Oeste 13 Oeste 0 -- -- 86
2018-01-19 22:00:00 10.1 3 Norte 12 Noroeste 0.2 -- -- 90
2018-01-19 21:00:00 10.3 4 Noroeste 22 Noroeste 0 -- -- 84
2018-01-19 20:00:00 10.5 9 Oeste 28 Oeste 0.6 -- -- 87
2018-01-19 19:00:00 11.1 13 Noroeste 31 Oeste 0.4 -- -- 79
2018-01-19 18:00:00 11 5 Oeste 18 Noroeste 0 -- -- 82
2018-01-19 17:00:00 11.4 9 Oeste 26 Sudoeste 0 -- -- 80
2018-01-19 16:00:00 11 8 Oeste 24 Oeste 0.4 -- -- 87
2018-01-19 15:00:00 11.3 4 Oeste 19 Noroeste 0.8 -- -- 87
2018-01-19 14:00:00 12.3 7 Noroeste 20 Oeste 0 -- -- 81
2018-01-19 13:00:00 11.6 2 Oeste 15 Sudoeste 0.2 -- -- 88
2018-01-19 12:00:00 11.9 4 Oeste 10 Sudoeste 0 -- -- 88
2018-01-19 11:00:00 10.7 2 Oeste 7 Sudoeste 0.8 -- -- 97
2018-01-19 10:00:00 10.1 0 Calma 3 Sudoeste 0 -- -- 97
2018-01-19 09:00:00 10.2 0 Calma 5 Sudeste 0 -- -- 94
2018-01-19 08:00:00 10.7 0 Calma 14 Oeste 0.4 -- -- 92
2018-01-19 07:00:00 11.3 5 Oeste 15 Noroeste 0.4 -- -- 93
2018-01-19 06:00:00 11.1 3 Oeste 22 Oeste 0.2 -- -- 94
2018-01-19 05:00:00 10 0 Calma 5 Sur 0 -- -- 97
2018-01-19 04:00:00 9.9 0 Calma 5 Este 0 -- -- 96
2018-01-19 03:00:00 9.8 0 Calma 4 Norte 0 -- -- 96
2018-01-19 02:00:00 9.4 0 Calma 5 Nordeste 0 -- -- 96
2018-01-19 01:00:00 9.2 0 Calma 5 Noroeste 0 -- -- 96
2018-01-19 00:00:00 8.9 0 Calma 3 Sur 0 -- -- 96
2018-01-18 23:00:00 8.9 0 Calma 4 Sur 0 -- -- 95
2018-01-18 22:00:00 8.8 0 Calma 4 Norte 0 -- -- 94
2018-01-18 21:00:00 8.7 0 Calma 3 Sudeste 0 -- -- 94
2018-01-18 20:00:00 8.5 0 Calma 3 Sur 0 -- -- 94
2018-01-18 19:00:00 8.1 0 Calma 9 Sudeste 0 -- -- 91
2018-01-18 18:00:00 9.7 3 Sudeste 12 Norte 0 -- -- 83
2018-01-18 17:00:00 12.6 4 Norte 18 Nordeste 0 -- -- 72
2018-01-18 16:00:00 14.1 3 Norte 12 Oeste 0 -- -- 64
2018-01-18 15:00:00 14.5 5 Oeste 13 Noroeste 0 -- -- 61
2018-01-18 14:00:00 13 2 Sudoeste 4 Sur 0 -- -- 72
2018-01-18 13:00:00 9.5 0 Calma 3 Sudoeste 0 -- -- 88
2018-01-18 12:00:00 6.3 0 Calma 4 Sur 0 -- -- 100
2018-01-18 11:00:00 4.4 2 Sur 4 Sudeste 0 -- -- 100
2018-01-18 10:00:00 3.8 3 Nordeste 4 Norte 0 -- -- 100
2018-01-18 09:00:00 3.3 0 Calma 5 Sudeste 0 -- -- 100
2018-01-18 08:00:00 3.2 3 Sudeste 5 Sudeste 0 -- -- 99
2018-01-18 07:00:00 3.7 0 Calma 4 Este 0 -- -- 99
2018-01-18 06:00:00 3.9 0 Calma 3 Sudeste 0 -- -- 99
2018-01-18 05:00:00 3.7 0 Calma 2 Nordeste 0 -- -- 99
2018-01-18 04:00:00 3.6 0 Calma 2 Nordeste 0 -- -- 99
2018-01-18 03:00:00 3.5 2 Sudeste 4 Sur 0 -- -- 98
2018-01-18 02:00:00 4.1 0 Calma 5 Sudeste 0 -- -- 97
2018-01-18 01:00:00 5.4 0 Calma 4 Sudeste 0 -- -- 96
2018-01-18 00:00:00 6.6 0 Calma 4 Sudeste 0 -- -- 97
2018-01-17 23:00:00 7.2 0 Calma 4 Sur 0 -- -- 96
2018-01-17 22:00:00 7.8 0 Calma 4 Este 0 -- -- 96
2018-01-17 21:00:00 8.3 0 Calma 4 Sudoeste 0 -- -- 95
2018-01-17 20:00:00 8.6 0 Calma 6 Sudeste 0 -- -- 94
2018-01-17 19:00:00 9.1 0 Calma 5 Sur 0 -- -- 94
2018-01-17 18:00:00 9.7 3 Sudeste 14 Noroeste 0.6 -- -- 91
2018-01-17 17:00:00 10.6 7 Oeste 20 Sudoeste 0 -- -- 79
2018-01-17 16:00:00 10.6 3 Oeste 27 Oeste 0 -- -- 81
2018-01-17 15:00:00 10.4 5 Noroeste 20 Noroeste 0 -- -- 86
2018-01-17 14:00:00 10.4 5 Noroeste 24 Norte 1.2 -- -- 85
2018-01-17 13:00:00 10.7 9 Oeste 26 Noroeste 1 -- -- 80
2018-01-17 12:00:00 11.5 8 Noroeste 29 Oeste 0 -- -- 73
2018-01-17 11:00:00 10.7 10 Oeste 32 Noroeste 0 -- -- 82
2018-01-17 10:00:00 9.9 13 Noroeste 34 Noroeste 0.6 -- -- 90
2018-01-17 09:00:00 10.1 5 Oeste 44 Norte 0.2 -- -- 89
2018-01-17 08:00:00 10 5 Oeste 50 Noroeste 0 -- -- 91
2018-01-17 07:00:00 10 15 Oeste 35 Noroeste 0.6 -- -- 92
2018-01-17 06:00:00 10.1 10 Oeste 44 Oeste 1.2 -- -- 91
2018-01-17 05:00:00 10.6 14 Oeste 45 Noroeste 0.4 -- -- 91
2018-01-17 04:00:00 11.2 17 Oeste 53 Oeste 2.4 -- -- 87
2018-01-17 03:00:00 12.1 17 Oeste 46 Sudoeste 1 -- -- 86
2018-01-17 02:00:00 12.5 15 Oeste 50 Sudoeste 1.4 -- -- 87
2018-01-17 01:00:00 13.4 13 Oeste 41 Oeste 0.2 -- -- 84
2018-01-17 00:00:00 12.8 17 Oeste 44 Oeste 2.8 -- -- 91
2018-01-16 23:00:00 11.3 4 Este 9 Este 1.6 -- -- 97
2018-01-16 22:00:00 11.4 0 Calma 5 Sur 0.4 -- -- 96
2018-01-16 21:00:00 11.6 0 Calma 4 Este 0.2 -- -- 95
2018-01-16 20:00:00 11.8 0 Calma 5 Norte 0 -- -- 93
2018-01-16 19:00:00 12.4 2 Sudeste 5 Sur 0 -- -- 90
2018-01-16 18:00:00 13.4 0 Calma 19 Oeste 0 -- -- 85
2018-01-16 17:00:00 14.2 5 Oeste 18 Oeste 0 -- -- 79
2018-01-16 16:00:00 14.1 5 Noroeste 22 Sudoeste 0 -- -- 79
2018-01-16 15:00:00 14.3 6 Oeste 23 Oeste 0 -- -- 79
2018-01-16 14:00:00 13.5 4 Norte 13 Oeste 0 -- -- 89
2018-01-16 13:00:00 13.4 3 Oeste 28 Sudoeste 0 -- -- 89
2018-01-16 12:00:00 12.9 3 Oeste 12 Oeste 0.2 -- -- 92
2018-01-16 11:00:00 12.2 2 Norte 28 Sudoeste 0 -- -- 94
2018-01-16 10:00:00 10.9 2 Nordeste 5 Este 0.4 -- -- 98
2018-01-16 09:00:00 10.7 3 Nordeste 7 Norte 0.6 -- -- 97
2018-01-16 08:00:00 10.5 0 Calma 6 Sudeste 0.4 -- -- 97
2018-01-16 07:00:00 10.5 0 Calma 7 Sudoeste 0.2 -- -- 95
2018-01-16 06:00:00 10.5 2 Este 6 Nordeste 0 -- -- 92
2018-01-16 05:00:00 10.5 2 Nordeste 9 Nordeste 0 -- -- 90
2018-01-16 04:00:00 11 3 Noroeste 17 Sudoeste 0 -- -- 85
2018-01-16 03:00:00 12.1 6 Sudeste 24 Sur 0 -- -- 79
2018-01-16 02:00:00 11.8 11 Sur 20 Sur 0 -- -- 80
2018-01-16 01:00:00 10.1 3 Noroeste 9 Noroeste 0 -- -- 84
2018-01-16 00:00:00 10.2 4 Noroeste 14 Nordeste 0 -- -- 81
2018-01-15 23:00:00 10 3 Norte 15 Sudeste 0 -- -- 79
2018-01-15 22:00:00 9.6 5 Este 16 Sudeste 0 -- -- 79
2018-01-15 21:00:00 9.9 6 Sudeste 22 Sudeste 0 -- -- 74
2018-01-15 20:00:00 11 8 Sur 20 Sudeste 0 -- -- 64
2018-01-15 19:00:00 11.2 9 Sur 20 Sur 0 -- -- 62
2018-01-15 18:00:00 11.4 7 Sur 18 Sur 0 -- -- 64
2018-01-15 17:00:00 11.8 5 Sudeste 15 Sur 0 -- -- 62
2018-01-15 16:00:00 11.6 5 Sur 13 Sudeste 0 -- -- 79
2018-01-15 15:00:00 11.6 3 Sur 20 Sudeste 0 -- -- 80
2018-01-15 14:00:00 11.5 6 Sur 17 Sur 0 -- -- 80
2018-01-15 13:00:00 10.9 7 Sur 22 Sudeste 0 -- -- 86
2018-01-15 12:00:00 9.4 3 Este 8 Sudeste 0 -- -- 100
2018-01-15 11:00:00 6.6 0 Calma 3 Sur 0 -- -- 100
2018-01-15 10:00:00 5.3 0 Calma 4 Sudeste 0 -- -- 100
2018-01-15 09:00:00 4.8 0 Calma 3 Sur 0 -- -- 100
2018-01-15 08:00:00 5.2 0 Calma 4 Este 0.2 -- -- 100
2018-01-15 07:00:00 4.9 0 Calma 3 Sudeste 0 -- -- 100
2018-01-15 06:00:00 4.9 0 Calma 3 Sudeste 0 -- -- 100
2018-01-15 05:00:00 5.1 0 Calma 4 Oeste 0 -- -- 100
2018-01-15 04:00:00 4.9 0 Calma 3 Noroeste 0 -- -- 100
2018-01-15 03:00:00 4.8 2 Sur 5 Sudeste 0 -- -- 100
2018-01-15 02:00:00 4.5 0 Calma 4 Sudeste 0 -- -- 100
2018-01-15 01:00:00 5.6 0 Calma 3 Sur 0.2 -- -- 100
2018-01-15 00:00:00 6.1 0 Calma 3 Sudeste 1.2 -- -- 100
2018-01-14 23:00:00 6 0 Calma 4 Norte 0 -- -- 99
2018-01-14 22:00:00 6.4 0 Calma 6 Nordeste 1 -- -- 99
2018-01-14 21:00:00 6.7 0 Calma 4 Norte 2 -- -- 99
2018-01-14 20:00:00 6.7 0 Calma 6 Sudeste 0.8 -- -- 99
2018-01-14 19:00:00 6.9 0 Calma 9 Norte 5 -- -- 98
2018-01-14 18:00:00 7.2 0 Calma 6 Sudoeste 0.8 -- -- 97
2018-01-14 17:00:00 7.5 7 Oeste 18 Sudoeste 2.4 -- -- 94
2018-01-14 16:00:00 8.5 9 Oeste 32 Oeste 0.2 -- -- 91
2018-01-14 15:00:00 8.5 7 Oeste 21 Sudoeste 0.2 -- -- 93
2018-01-14 14:00:00 8.6 8 Sudoeste 19 Sudoeste 0 -- -- 93
2018-01-14 13:00:00 7.6 2 Nordeste 9 Oeste 2.8 -- -- 97
2018-01-14 12:00:00 8 0 Calma 10 Sur 0.8 -- -- 95
2018-01-14 11:00:00 7.1 3 Noroeste 9 Sudoeste 0 -- -- 97
2018-01-14 10:00:00 6.1 2 Norte 5 Norte 0.2 -- -- 99
2018-01-14 09:00:00 5.7 0 Calma 7 Nordeste 0 -- -- 98
2018-01-14 08:00:00 5.9 3 Norte 17 Sur 0.6 -- -- 96
2018-01-14 07:00:00 6.2 8 Sudoeste 18 Sudoeste 2.2 -- -- 96
2018-01-14 06:00:00 5.9 2 Noroeste 6 Noroeste 0 -- -- 98
2018-01-14 05:00:00 5.8 0 Calma 5 Nordeste 0 -- -- 98
2018-01-14 04:00:00 5.9 0 Calma 6 Nordeste 0.4 -- -- 98
2018-01-14 03:00:00 6.1 2 Noroeste 6 Oeste 1 -- -- 96
2018-01-14 02:00:00 6.3 0 Calma 2 Norte 1.8 -- -- 96
2018-01-14 01:00:00 6.5 0 Calma 3 Sudeste 1.8 -- -- 95
2018-01-14 00:00:00 6.8 0 Calma 4 Noroeste 0.6 -- -- 94
2018-01-13 23:00:00 7 0 Calma 4 Este 0.2 -- -- 92
2018-01-13 22:00:00 7.4 0 Calma 5 Sudoeste 0.6 -- -- 90
2018-01-13 21:00:00 8.8 3 Sudeste 30 Sur 0.2 -- -- 81
2018-01-13 20:00:00 10 13 Sudoeste 24 Sudoeste 0 -- -- 64
2018-01-13 19:00:00 8.8 2 Sudeste 8 Este 0 -- -- 72
2018-01-13 18:00:00 9.7 3 Sudeste 17 Sudoeste 0 -- -- 68
2018-01-13 17:00:00 11.3 5 Sur 23 Sur 0 -- -- 56
2018-01-13 16:00:00 11.5 6 Sudeste 30 Oeste 0 -- -- 56
2018-01-13 15:00:00 11.6 7 Sur 41 Oeste 0 -- -- 54
2018-01-13 14:00:00 11.6 7 Oeste 32 Sur 0 -- -- 53
2018-01-13 13:00:00 11.7 7 Sudoeste 29 Sur 0 -- -- 53
2018-01-13 12:00:00 11.4 15 Sudoeste 36 Sudoeste 0 -- -- 55
2018-01-13 11:00:00 10.8 15 Sur 37 Sur 0 -- -- 55
2018-01-13 10:00:00 10.5 10 Sur 40 Sudeste 0 -- -- 56
2018-01-13 09:00:00 10.1 6 Sudeste 31 Sudeste 0 -- -- 54
2018-01-13 08:00:00 10.2 8 Sudeste 23 Sur 0 -- -- 52
2018-01-13 07:00:00 9.9 8 Sur 23 Este 0 -- -- 59
2018-01-13 06:00:00 9.3 9 Sur 23 Sur 0 -- -- 76
2018-01-13 05:00:00 7.1 3 Norte 20 Este 0 -- -- 88
2018-01-13 04:00:00 4.7 4 Noroeste 12 Sudeste 0 -- -- 100
2018-01-13 03:00:00 3.2 5 Oeste 18 Sudoeste 0 -- -- 100
2018-01-13 02:00:00 3.3 0 Calma 7 Sur 0 -- -- 100
2018-01-13 01:00:00 4 0 Calma 4 Este 0 -- -- 100
2018-01-13 00:00:00 4.7 0 Calma 5 Sudeste 0 -- -- 100
2018-01-12 23:00:00 5 0 Calma 8 Sudeste 0 -- -- 100
2018-01-12 22:00:00 5.8 0 Calma 3 Nordeste 0 -- -- 100
2018-01-12 21:00:00 5.8 0 Calma 2 Nordeste 0 -- -- 100
2018-01-12 20:00:00 5.4 0 Calma 4 Sudeste 0 -- -- 99
2018-01-12 19:00:00 5.5 0 Calma 5 Sudeste 0 -- -- 98
2018-01-12 18:00:00 6.7 0 Calma 5 Sudeste 0 -- -- 96
2018-01-12 17:00:00 9 4 Sudeste 6 Sudeste 0 -- -- 94
2018-01-12 16:00:00 10.9 0 Calma 6 Oeste 0 -- -- 95
2018-01-12 15:00:00 9.2 0 Calma 3 Oeste 0 -- -- 99
2018-01-12 14:00:00 8.3 0 Calma 4 Sudoeste 0 -- -- 99
2018-01-12 13:00:00 7.4 0 Calma 4 Noroeste 0 -- -- 99
2018-01-12 12:00:00 6.7 0 Calma 3 Oeste 0.4 -- -- 100
2018-01-12 11:00:00 5.9 0 Calma 4 Sudeste 0 -- -- 100
2018-01-12 10:00:00 5 0 Calma 2 Sudeste 0 -- -- 100
2018-01-12 09:00:00 4.9 0 Calma 3 Este 0.4 -- -- 100
2018-01-12 08:00:00 4.7 0 Calma 2 Oeste 0.2 -- -- 100
2018-01-12 07:00:00 4.4 0 Calma 4 Sudeste 0 -- -- 100
2018-01-12 06:00:00 4 0 Calma 3 Sudeste 0 -- -- 100
2018-01-12 05:00:00 4.5 0 Calma 9 Sudeste 0.6 -- -- 100
2018-01-12 04:00:00 4.5 3 Este 6 Sudeste 1 -- -- 100
2018-01-12 03:00:00 4.3 0 Calma 2 Este 0 -- -- 100
2018-01-12 02:00:00 4.2 2 Oeste 5 Oeste 0.2 -- -- 100
2018-01-12 01:00:00 3.7 0 Calma 4 Este 0.4 -- -- 100
2018-01-12 00:00:00 3 0 Calma 3 Este 0 -- -- 99
2018-01-11 23:00:00 2.7 2 Sudeste 4 Sudeste 0 -- -- 99
2018-01-11 22:00:00 3.9 2 Este 4 Sudeste 0 -- -- 98
2018-01-11 21:00:00 5.1 0 Calma 5 Sudeste 0 -- -- 98
2018-01-11 20:00:00 5.9 0 Calma 5 Noroeste 0.2 -- -- 98
2018-01-11 19:00:00 6.3 2 Noroeste 8 Nordeste 1.4 -- -- 97
2018-01-11 18:00:00 6.6 6 Nordeste 14 Este 0 -- -- 95
2018-01-11 17:00:00 7.2 2 Nordeste 23 Oeste 0.4 -- -- 94
2018-01-11 16:00:00 6.7 10 Oeste 32 Sudoeste 0.4 -- -- 93
2018-01-11 15:00:00 5.9 4 Sur 29 Sudoeste 2.2 -- -- 95
2018-01-11 14:00:00 6.1 4 Sur 25 Sudoeste 0.8 -- -- 95
2018-01-11 13:00:00 6.1 3 Nordeste 11 Sudoeste 0.6 -- -- 96
2018-01-11 12:00:00 5.8 3 Sudoeste 13 Sur 1.8 -- -- 96
2018-01-11 11:00:00 5.6 5 Sur 12 Sur 1.4 -- -- 95
2018-01-11 10:00:00 5.5 5 Sudoeste 28 Sudoeste 1.6 -- -- 96
2018-01-11 09:00:00 5.2 3 Sudeste 10 Noroeste 0.8 -- -- 97
2018-01-11 08:00:00 5.5 3 Sur 15 Sudoeste 2 -- -- 91
2018-01-11 07:00:00 5.4 2 Noroeste 6 Sur 1.2 -- -- 95
2018-01-11 06:00:00 5.6 2 Oeste 8 Sudoeste 0.4 -- -- 89
2018-01-11 05:00:00 4.4 0 Calma 5 Noroeste 0 -- -- 96
2018-01-11 04:00:00 3.6 0 Calma 6 Sur 0 -- -- 97
2018-01-11 03:00:00 3.6 3 Este 8 Sudoeste 0 -- -- 95
2018-01-11 02:00:00 4 2 Norte 6 Sudeste 0 -- -- 93
2018-01-11 01:00:00 6 0 Calma 13 Sudoeste 0 -- -- 90
2018-01-11 00:00:00 7.9 7 Sudoeste 43 Oeste 0.2 -- -- 81
2018-01-10 23:00:00 8 7 Oeste 29 Oeste 0.2 -- -- 82
2018-01-10 22:00:00 7.9 8 Sudoeste 28 Noroeste 0 -- -- 87
2018-01-10 21:00:00 7 0 Calma 28 Sur 0.4 -- -- 96
2018-01-10 20:00:00 7.4 4 Sur 15 Sudoeste 3.6 -- -- 93
2018-01-10 19:00:00 8.3 10 Sudoeste 41 Oeste 5.2 -- -- 87
2018-01-10 18:00:00 9.4 0 Calma 16 Sudeste 0.2 -- -- 84
2018-01-10 17:00:00 11.4 8 Sudeste 29 Sur 0 -- -- 62
2018-01-10 16:00:00 11.6 11 Sur 27 Sur 0 -- -- 59
2018-01-10 15:00:00 11.9 9 Sudeste 28 Sudeste 0 -- -- 58
2018-01-10 14:00:00 13 10 Sur 26 Sudeste 0 -- -- 57
2018-01-10 13:00:00 12.6 11 Sudeste 26 Sur 0 -- -- 59
2018-01-10 12:00:00 11.5 11 Sur 27 Sur 0 -- -- 64
2018-01-10 11:00:00 9.8 5 Sur 13 Este 0 -- -- 69
2018-01-10 10:00:00 8.2 3 Norte 11 Sudeste 0 -- -- 74
2018-01-10 09:00:00 6 0 Calma 9 Norte 0 -- -- 85
2018-01-10 08:00:00 7.3 3 Norte 14 Sudeste 0 -- -- 77
2018-01-10 07:00:00 7.4 3 Noroeste 14 Sudoeste 0 -- -- 77
2018-01-10 06:00:00 8.2 4 Nordeste 15 Sur 0 -- -- 73
2018-01-10 05:00:00 8.7 3 Nordeste 15 Sur 0 -- -- 68
2018-01-10 04:00:00 8.7 4 Este 17 Sur 0 -- -- 67
2018-01-10 03:00:00 7.9 5 Sudeste 16 Sur 0 -- -- 70
2018-01-10 02:00:00 7.6 5 Este 19 Sudeste 0 -- -- 71
2018-01-10 01:00:00 7.6 5 Sudeste 19 Sudeste 0 -- -- 71
2018-01-10 00:00:00 7.8 7 Sudeste 23 Sudeste 0 -- -- 70
2018-01-09 23:00:00 8.3 4 Norte 27 Sudeste 0 -- -- 69
2018-01-09 22:00:00 7.9 8 Sudeste 28 Sudeste 0 -- -- 70
2018-01-09 21:00:00 7.7 9 Sur 23 Sur 0 -- -- 71
2018-01-09 20:00:00 7.2 8 Sur 31 Sudoeste 0.6 -- -- 76
2018-01-09 19:00:00 7.5 7 Sur 36 Sudeste 0.2 -- -- 73
2018-01-09 18:00:00 8.6 13 Sur 45 Sur 0.2 -- -- 64
2018-01-09 17:00:00 9.1 12 Sur 44 Sur 0 -- -- 55
2018-01-09 16:00:00 9.4 12 Sur 39 Sudoeste 0 -- -- 51
2018-01-09 15:00:00 9.2 13 Sur 40 Sudoeste 0 -- -- 51
2018-01-09 14:00:00 9.2 12 Sudoeste 45 Sudeste 0 -- -- 50
2018-01-09 13:00:00 8.4 15 Sudeste 36 Sudeste 0 -- -- 55
2018-01-09 12:00:00 8.5 12 Sur 40 Sur 0 -- -- 55
2018-01-09 11:00:00 7.2 7 Sur 27 Sur 0 -- -- 61
2018-01-09 10:00:00 4.8 7 Sudeste 22 Sudeste 0 -- -- 73
2018-01-09 09:00:00 -0.7 0 Calma 4 Sur 0 -- -- 100
2018-01-09 08:00:00 -1.4 0 Calma 5 Sur 0 -- -- 98
2018-01-09 07:00:00 -1.9 0 Calma 4 Sudeste 0 -- -- 98
2018-01-09 06:00:00 -2 0 Calma 3 Sudeste 0 -- -- 98
2018-01-09 05:00:00 -1.7 2 Este 4 Sudeste 0 -- -- 98
2018-01-09 04:00:00 -1.6 0 Calma 3 Sudeste 0 -- -- 98
2018-01-09 03:00:00 -1.5 0 Calma 3 Este 0 -- -- 98
2018-01-09 02:00:00 -1.2 0 Calma 2 Sudeste 0 -- -- 98
2018-01-09 01:00:00 -1.2 0 Calma 4 Este 0 -- -- 98
2018-01-09 00:00:00 -0.9 0 Calma 2 Sudoeste 0 -- -- 98
2018-01-08 23:00:00 -0.4 0 Calma 2 Este 0 -- -- 97
2018-01-08 22:00:00 0.1 3 Sudeste 5 Sudeste 0 -- -- 97
2018-01-08 21:00:00 0.6 0 Calma 3 Sudeste 0 -- -- 95
2018-01-08 20:00:00 1.7 0 Calma 5 Sudeste 0 -- -- 94
2018-01-08 19:00:00 2.9 0 Calma 5 Sudeste 0 -- -- 91
2018-01-08 18:00:00 5.1 2 Este 8 Sudeste 0 -- -- 85
2018-01-08 17:00:00 8.5 4 Sudeste 9 Sudeste 0 -- -- 74
2018-01-08 16:00:00 11.6 3 Sudeste 6 Sur 0 -- -- 66
2018-01-08 15:00:00 12.8 0 Calma 12 Sudoeste 0 -- -- 55
2018-01-08 14:00:00 11 8 Sur 15 Sur 0 -- -- 76
2018-01-08 13:00:00 9.9 3 Nordeste 5 Sur 0 -- -- 88
2018-01-08 12:00:00 7.6 0 Calma 4 Sur 0 -- -- 100
2018-01-08 11:00:00 3.4 0 Calma 3 Nordeste 0 -- -- 100
2018-01-08 10:00:00 1.8 0 Calma 3 Sur 0 -- -- 100
2018-01-08 09:00:00 1.2 0 Calma 3 Nordeste 0 -- -- 100
2018-01-08 08:00:00 1.4 0 Calma 2 Sur 0 -- -- 100
2018-01-08 07:00:00 1.9 0 Calma 3 Sudeste 0 -- -- 100
2018-01-08 06:00:00 1.6 0 Calma 2 Este 0 -- -- 100
2018-01-08 05:00:00 1.9 2 Sudeste 5 Este 0 -- -- 100
2018-01-08 04:00:00 2 2 Sudeste 4 Sudeste 0 -- -- 100
2018-01-08 03:00:00 2 0 Calma 3 Sudeste 0 -- -- 100
2018-01-08 02:00:00 2.2 0 Calma 3 Sudeste 0 -- -- 100
2018-01-08 01:00:00 2.3 0 Calma 4 Este 0.2 -- -- 100
2018-01-08 00:00:00 2.4 0 Calma 3 Este 0.2 -- -- 100
2018-01-07 23:00:00 2.5 0 Calma 5 Este 0.2 -- -- 100
2018-01-07 22:00:00 2.7 0 Calma 3 Sudeste 0.4 -- -- 100
2018-01-07 21:00:00 2.4 0 Calma 4 Sur 0 -- -- 100
2018-01-07 20:00:00 1.9 0 Calma 4 Sudeste 0 -- -- 100
2018-01-07 19:00:00 2.2 0 Calma 5 Este 0.2 -- -- 99
2018-01-07 18:00:00 3 0 Calma 6 Sudeste 0.2 -- -- 99
2018-01-07 17:00:00 3.9 2 Sudeste 4 Sudeste 0.8 -- -- 98
2018-01-07 16:00:00 4.6 0 Calma 5 Sudeste 1.2 -- -- 99
2018-01-07 15:00:00 4.7 0 Calma 5 Este 1.6 -- -- 99
2018-01-07 14:00:00 4.1 2 Sudeste 5 Sudeste 2 -- -- 99
2018-01-07 13:00:00 3.6 0 Calma 4 Este 1.8 -- -- 100
2018-01-07 12:00:00 2.7 2 Nordeste 6 Sudeste 1.2 -- -- 100
2018-01-07 11:00:00 2.2 2 Sudeste 7 Sudeste 1 -- -- 100
2018-01-07 10:00:00 1.7 0 Calma 5 Sudeste 0.6 -- -- 100
2018-01-07 09:00:00 1.2 0 Calma 5 Este 0.4 -- -- 100
2018-01-07 08:00:00 1.3 3 Este 8 Sudeste 1.2 -- -- 100
2018-01-07 07:00:00 1.2 0 Calma 3 Sudeste 0.8 -- -- 100
2018-01-07 06:00:00 1.1 0 Calma 4 Sudeste 0.8 -- -- 100
2018-01-07 05:00:00 1 0 Calma 2 Sur 0.4 -- -- 100
2018-01-07 04:00:00 0.9 0 Calma 2 Sudeste 0.8 -- -- 100
2018-01-07 03:00:00 0.9 0 Calma 2 Sudeste 2.2 -- -- 100
2018-01-07 02:00:00 0.8 0 Calma 3 Este 3 -- -- 100
2018-01-07 01:00:00 0.7 0 Calma 2 Este 5 -- -- 100
2018-01-07 00:00:00 0.7 0 Calma 4 Este 3.4 -- -- 100
2018-01-06 23:00:00 0.6 0 Calma 4 Este 3.4 -- -- 100
2018-01-06 22:00:00 0.5 0 Calma 2 Sudoeste 3.4 -- -- 100
2018-01-06 21:00:00 0.5 0 Calma 3 Sudeste 3.4 -- -- 100
2018-01-06 20:00:00 0.3 0 Calma 0 Calma 2.6 -- -- 100
2018-01-06 19:00:00 0.2 0 Calma 0 Calma 0.6 -- -- 100
2018-01-06 18:00:00 0.3 0 Calma 0 Calma 0.4 -- -- 100
2018-01-06 17:00:00 0.4 0 Calma 2 Este 1 -- -- 100
2018-01-06 16:00:00 0.6 0 Calma 2 Este 3.6 -- -- 99
2018-01-06 15:00:00 0.5 0 Calma 2 Sur 3.8 -- -- 99
2018-01-06 14:00:00 0.7 0 Calma 4 Sur 1.2 -- -- 99
2018-01-06 13:00:00 1.4 0 Calma 6 Este 3.4 -- -- 98
2018-01-06 12:00:00 3.2 0 Calma 4 Este 4.4 -- -- 98
2018-01-06 11:00:00 3.7 0 Calma 4 Sur 2.4 -- -- 98
2018-01-06 10:00:00 3.7 2 Sudoeste 5 Sudoeste 1.8 -- -- 98
2018-01-06 09:00:00 4.1 0 Calma 6 Sur 1.8 -- -- 98
2018-01-06 08:00:00 4.5 4 Oeste 6 Sudoeste 1.8 -- -- 98
2018-01-06 07:00:00 5 0 Calma 6 Oeste 1.4 -- -- 97
2018-01-06 06:00:00 5.6 0 Calma 2 Sudoeste 2.4 -- -- 98
2018-01-06 05:00:00 6 0 Calma 5 Sudoeste 3.4 -- -- 98
2018-01-06 04:00:00 6.8 2 Sudeste 5 Sudeste 2.8 -- -- 99
2018-01-06 03:00:00 6.9 0 Calma 3 Sur 2.6 -- -- 98
2018-01-06 02:00:00 7.5 0 Calma 9 Oeste 3.2 -- -- 97
2018-01-06 01:00:00 8.1 0 Calma 3 Sur 2.8 -- -- 98
2018-01-06 00:00:00 8.5 2 Sur 6 Sudoeste 2 -- -- 98
2018-01-05 23:00:00 8.8 0 Calma 5 Sudeste 2 -- -- 98
2018-01-05 22:00:00 9 0 Calma 4 Sudeste 1.2 -- -- 98
2018-01-05 21:00:00 9.2 0 Calma 5 Noroeste 1.6 -- -- 97
2018-01-05 20:00:00 9.4 0 Calma 5 Nordeste 2.2 -- -- 96
2018-01-05 19:00:00 9.7 0 Calma 5 Nordeste 2.2 -- -- 95
2018-01-05 18:00:00 10 2 Noroeste 6 Nordeste 0 -- -- 93
2018-01-05 17:00:00 10.4 3 Este 9 Oeste 0.4 -- -- 92
2018-01-05 16:00:00 11 3 Oeste 12 Noroeste 0 -- -- 87
2018-01-05 15:00:00 11.5 2 Sudoeste 4 Sudoeste 0 -- -- 86
2018-01-05 14:00:00 11.6 0 Calma 4 Oeste 0 -- -- 86
2018-01-05 13:00:00 11.4 0 Calma 4 Sudeste 1.2 -- -- 91
2018-01-05 12:00:00 -- -- -- -- -- -- -- -- --
2018-01-05 11:00:00 -- 14 Noroeste 18 Noroeste 0 -- -- --
2018-01-05 10:00:00 15.4 5 Sur 21 Sur 0 -- -- 55
2018-01-05 09:00:00 15.9 10 Sur 22 Sur 0 -- -- 53
2018-01-05 08:00:00 15.8 8 Sudeste 24 Sudeste 0 -- -- 52
2018-01-05 07:00:00 15.6 6 Sudeste 31 Sur 0 -- -- 51
2018-01-05 06:00:00 15.5 6 Sudeste 27 Sur 0 -- -- 53
2018-01-05 05:00:00 16 10 Sudeste 31 Sur 0 -- -- 53
2018-01-05 04:00:00 15.5 6 Sur 30 Oeste 0 -- -- 56
2018-01-05 03:00:00 14.8 6 Sur 21 Sudeste 0 -- -- 61
2018-01-05 02:00:00 11.5 0 Calma 7 Este 0 -- -- 81
2018-01-05 01:00:00 13.6 2 Norte 14 Sudeste 0 -- -- 73
2018-01-05 00:00:00 13 3 Noroeste 8 Sudeste 0 -- -- 76
2018-01-04 23:00:00 11.8 0 Calma 5 Norte 0 -- -- 87
2018-01-04 22:00:00 10.2 0 Calma 6 Sur 0 -- -- 94
2018-01-04 21:00:00 9.5 0 Calma 7 Sur 0 -- -- 93
2018-01-04 20:00:00 9.7 0 Calma 5 Sur 0 -- -- 91
2018-01-04 19:00:00 10.7 0 Calma 5 Sudeste 0 -- -- 88
2018-01-04 18:00:00 13.3 0 Calma 8 Sudeste 0 -- -- 77
2018-01-04 17:00:00 17.1 6 Sur 14 Sudoeste 0 -- -- 61
2018-01-04 16:00:00 19.8 6 Oeste 26 Sudoeste 0 -- -- 55
2018-01-04 15:00:00 20.1 14 Sudoeste 27 Sudoeste 0 -- -- 57
2018-01-04 14:00:00 20.4 6 Sudoeste 16 Oeste 0 -- -- 55
2018-01-04 13:00:00 17.9 8 Oeste 17 Oeste 0 -- -- 63
2018-01-04 12:00:00 15 0 Calma 3 Noroeste 0 -- -- 89
2018-01-04 11:00:00 13.2 0 Calma 3 Sudeste 0 -- -- 96
2018-01-04 10:00:00 12.4 3 Sudoeste 7 Sudoeste 0 -- -- 97
2018-01-04 09:00:00 11.7 0 Calma 3 Sudeste 0 -- -- 95
2018-01-04 08:00:00 12.2 0 Calma 5 Norte 0 -- -- 95
2018-01-04 07:00:00 12.1 0 Calma 5 Norte 0 -- -- 95
2018-01-04 06:00:00 12.4 0 Calma 4 Sur 0 -- -- 91
2018-01-04 05:00:00 14.7 0 Calma 24 Oeste 0 -- -- 83
2018-01-04 04:00:00 16.5 9 Oeste 24 Sudoeste 0.2 -- -- 74
2018-01-04 03:00:00 16.5 3 Sur 15 Noroeste 0 -- -- 80
2018-01-04 02:00:00 17.2 7 Oeste 22 Noroeste 0 -- -- 74
2018-01-04 01:00:00 15.4 4 Sudoeste 13 Sudoeste 0 -- -- 86
2018-01-04 00:00:00 16.1 6 Oeste 32 Oeste 0 -- -- 84
2018-01-03 23:00:00 14.9 3 Norte 15 Oeste 0 -- -- 92
2018-01-03 22:00:00 13.7 4 Este 14 Sudoeste 0 -- -- 97
2018-01-03 21:00:00 14 2 Sudeste 8 Este 0 -- -- 97
2018-01-03 20:00:00 14.3 0 Calma 5 Sudeste 1 -- -- 97
2018-01-03 19:00:00 14.8 0 Calma 5 Sudoeste 1.4 -- -- 95
2018-01-03 18:00:00 15.4 0 Calma 18 Oeste 0.2 -- -- 92
2018-01-03 17:00:00 15.4 3 Oeste 11 Noroeste 1.8 -- -- 94
2018-01-03 16:00:00 15.7 0 Calma 8 Noroeste 1.2 -- -- 94
2018-01-03 15:00:00 16.8 3 Noroeste 9 Noroeste 0.4 -- -- 87
2018-01-03 14:00:00 17.2 0 Calma 15 Sudoeste 0.6 -- -- 88
2018-01-03 13:00:00 17.2 10 Oeste 27 Noroeste 0 -- -- 80
2018-01-03 12:00:00 17.7 10 Noroeste 26 Oeste 0 -- -- 78
2018-01-03 11:00:00 16.4 4 Oeste 13 Oeste 0 -- -- 82
2018-01-03 10:00:00 14.2 2 Nordeste 8 Este 0 -- -- 93
2018-01-03 09:00:00 14.3 3 Oeste 20 Sudoeste 0 -- -- 90
2018-01-03 08:00:00 13.4 0 Calma 11 Oeste 0 -- -- 95
2018-01-03 07:00:00 12.9 2 Sudeste 6 Sudeste 0 -- -- 95
2018-01-03 06:00:00 12.3 3 Noroeste 6 Sudeste 0 -- -- 97
2018-01-03 05:00:00 11.9 2 Sudeste 6 Noroeste 0 -- -- 97
2018-01-03 04:00:00 11.4 0 Calma 4 Sur 0 -- -- 96
2018-01-03 03:00:00 12 0 Calma 6 Sur 0 -- -- 96
2018-01-03 02:00:00 12.2 2 Sur 5 Noroeste 0 -- -- 96
2018-01-03 01:00:00 12.5 0 Calma 4 Sudeste 0 -- -- 97
2018-01-03 00:00:00 12.6 0 Calma 4 Norte 0 -- -- 96
2018-01-02 23:00:00 12.9 0 Calma 4 Nordeste 0 -- -- 96
2018-01-02 22:00:00 13.4 2 Sudeste 5 Norte 0 -- -- 96
2018-01-02 21:00:00 13.7 0 Calma 5 Sur 0 -- -- 95
2018-01-02 20:00:00 14.1 2 Este 11 Sudeste 0 -- -- 93
2018-01-02 19:00:00 15 4 Sur 13 Oeste 0 -- -- 89
2018-01-02 18:00:00 15.9 4 Noroeste 19 Noroeste 0.2 -- -- 85
2018-01-02 17:00:00 16.9 9 Oeste 32 Sudoeste 0 -- -- 76
2018-01-02 16:00:00 15.9 5 Sudoeste 26 Sudoeste 0 -- -- 82
2018-01-02 15:00:00 15.3 9 Sudoeste 34 Sudoeste 0.4 -- -- 86
2018-01-02 14:00:00 14.6 8 Sudoeste 23 Sudoeste 0.2 -- -- 90
2018-01-02 13:00:00 13.9 5 Sudoeste 16 Sudoeste 0.2 -- -- 93
2018-01-02 12:00:00 12.4 3 Norte 11 Sur 1 -- -- 99
2018-01-02 11:00:00 11.2 0 Calma 8 Nordeste 1 -- -- 99
2018-01-02 10:00:00 10 0 Calma 4 Nordeste 0.4 -- -- 98
2018-01-02 09:00:00 9.4 0 Calma 6 Noroeste 0 -- -- 98
2018-01-02 08:00:00 9 0 Calma 5 Sudeste 0.2 -- -- 97
2018-01-02 07:00:00 8.9 0 Calma 5 Noroeste 0 -- -- 97
2018-01-02 06:00:00 9.1 2 Oeste 6 Noroeste 0 -- -- 97
2018-01-02 05:00:00 9.2 3 Nordeste 6 Nordeste 0.6 -- -- 97
2018-01-02 04:00:00 9.2 0 Calma 3 Norte 1.2 -- -- 96
2018-01-02 03:00:00 9.5 0 Calma 6 Este 0.6 -- -- 95
2018-01-02 02:00:00 10.1 0 Calma 5 Nordeste 0 -- -- 91
2018-01-02 01:00:00 11.3 2 Noroeste 8 Sur 0.2 -- -- 85
2018-01-02 00:00:00 11.6 0 Calma 18 Oeste 0 -- -- 81
2018-01-01 23:00:00 11.8 4 Oeste 18 Oeste 0 -- -- 78
2018-01-01 22:00:00 12.5 9 Oeste 39 Oeste 0 -- -- 73
2018-01-01 21:00:00 12.3 15 Oeste 37 Noroeste 0 -- -- 84
2018-01-01 20:00:00 12.5 17 Oeste 44 Sudoeste 0.2 -- -- 87
2018-01-01 19:00:00 12.6 21 Oeste 49 Sudoeste 0.4 -- -- 90
2018-01-01 18:00:00 11.3 17 Oeste 48 Oeste 4.6 -- -- 96
2018-01-01 17:00:00 10.2 9 Sudoeste 48 Sudoeste 6.8 -- -- 92
2018-01-01 16:00:00 11.7 14 Oeste 54 Oeste 3 -- -- 80
2018-01-01 15:00:00 14.5 17 Sudoeste 37 Sur 0 -- -- 56
2018-01-01 14:00:00 14.7 14 Sudoeste 44 Sur 0 -- -- 52
2018-01-01 13:00:00 14.3 19 Sudoeste 45 Sudoeste 0 -- -- 52
2018-01-01 12:00:00 13.2 8 Sur 27 Sudeste 0 -- -- 53
2018-01-01 11:00:00 11.2 8 Sudeste 32 Sudeste 0 -- -- 58
2018-01-01 10:00:00 8.8 5 Sudeste 16 Sur 0 -- -- 65
2018-01-01 09:00:00 6.3 3 Sur 15 Sudeste 0 -- -- 76
2018-01-01 08:00:00 5 2 Norte 9 Noroeste 0 -- -- 88
2018-01-01 07:00:00 4.6 2 Sudeste 6 Sudeste 0 -- -- 89
2018-01-01 06:00:00 7 0 Calma 22 Sudoeste 0 -- -- 81
2018-01-01 05:00:00 10.5 6 Sudoeste 27 Sudoeste 0 -- -- 65
2018-01-01 04:00:00 11 8 Oeste 40 Sudoeste 0 -- -- 61
2018-01-01 03:00:00 11.5 16 Oeste 47 Oeste 0.2 -- -- 58
2018-01-01 02:00:00 11.1 13 Oeste 38 Oeste 0 -- -- 62
2018-01-01 01:00:00 8.6 5 Oeste 19 Oeste 0 -- -- 84
2018-01-01 00:00:00 7.1 3 Norte 7 Sudeste 0 -- -- 95
2017-12-31 23:00:00 8.5 2 Sudoeste 40 Oeste 1 -- -- 89
2017-12-31 22:00:00 9.2 9 Sudoeste 55 Sudoeste 0.2 -- -- 86
2017-12-31 21:00:00 10 15 Oeste 39 Sudoeste 0 -- -- 81
2017-12-31 20:00:00 9 6 Oeste 18 Oeste 0.8 -- -- 92
2017-12-31 19:00:00 8.8 6 Sur 24 Sudoeste 2.6 -- -- 93
2017-12-31 18:00:00 9.3 10 Sudoeste 46 Oeste 3.4 -- -- 89
2017-12-31 17:00:00 10.4 22 Oeste 55 Oeste 4.4 -- -- 87
2017-12-31 16:00:00 12.1 24 Noroeste 68 Oeste 1.2 -- -- 84
2017-12-31 15:00:00 17.4 10 Sur 24 Sur 0 -- -- 50
2017-12-31 14:00:00 15.3 3 Nordeste 27 Sur 0 -- -- 56
2017-12-31 13:00:00 14.5 5 Sudeste 32 Sur 0 -- -- 60
2017-12-31 12:00:00 14.4 11 Sur 48 Sur 0 -- -- 60
2017-12-31 11:00:00 14.1 6 Sudeste 29 Sudeste 0 -- -- 60
2017-12-31 10:00:00 14 7 Sur 30 Sudeste 0 -- -- 61
2017-12-31 09:00:00 13.9 14 Sudoeste 32 Sudoeste 0 -- -- 61
2017-12-31 08:00:00 14.1 5 Sur 29 Sudeste 0 -- -- 62
2017-12-31 07:00:00 14.5 9 Sur 32 Sur 0 -- -- 60
2017-12-31 06:00:00 15 10 Sudeste 33 Sur 0 -- -- 58
2017-12-31 05:00:00 14.9 6 Sudeste 29 Sudeste 0 -- -- 57
2017-12-31 04:00:00 14.5 10 Sudeste 27 Sur 0 -- -- 61
2017-12-31 03:00:00 12.2 6 Sudeste 14 Sur 0 -- -- 73
2017-12-31 02:00:00 5.2 2 Oeste 9 Norte 0 -- -- 100
2017-12-31 01:00:00 4.6 0 Calma 5 Oeste 0 -- -- 99